Time;durP1;ratioP1;P1;durP2;ratioP2;P2;SDS_P1;SDS_P2;PMS_P1;PMS_P2;Temp;Humidity;BMP_temperature;BMP_pressure;BME280_temperature;BME280_humidity;BME280_pressure;Samples;Min_cycle;Max_cycle;Signal;HPM_P1;HPM_P2
2023/07/10 00:00:06;;;;;;;30.52;17.77;;;18.50;99.90;;;;;;5073331;28;20125;-72
2023/07/10 00:02:31;;;;;;;28.92;18.15;;;18.40;99.90;;;;;;5044359;28;20048;-77
2023/07/10 00:05:00;;;;;;;35.50;19.00;;;18.40;99.90;;;;;;5089558;28;20035;-70
2023/07/10 00:07:26;;;;;;;42.63;19.77;;;18.40;99.90;;;;;;5065819;28;20066;-76
2023/07/10 00:09:53;;;;;;;30.75;18.58;;;18.40;99.90;;;;;;5074358;28;20052;-71
2023/07/10 00:12:21;;;;;;;39.88;18.95;;;18.40;99.90;;;;;;5071700;28;20052;-72
2023/07/10 00:14:47;;;;;;;35.83;18.58;;;18.40;99.90;;;;;;5074511;28;20215;-78
2023/07/10 00:17:15;;;;;;;42.38;20.00;;;18.40;99.90;;;;;;5078356;28;20052;-77
2023/07/10 00:19:41;;;;;;;38.25;19.52;;;18.40;99.90;;;;;;5078554;28;20456;-69
2023/07/10 00:22:07;;;;;;;58.25;23.75;;;18.40;99.90;;;;;;5078295;28;20221;-71
2023/07/10 00:24:33;;;;;;;36.42;19.65;;;18.40;99.90;;;;;;5078065;28;20051;-71
2023/07/10 00:26:59;;;;;;;47.95;21.25;;;18.40;99.90;;;;;;5079200;28;20040;-68
2023/07/10 00:29:44;;;;;;;33.08;19.83;;;18.30;99.90;;;;;;5081862;28;20067;-70
2023/07/10 00:32:13;;;;;;;26.15;17.40;;;18.30;99.90;;;;;;5076740;28;20044;-75
2023/07/10 00:34:39;;;;;;;31.48;18.50;;;18.20;99.90;;;;;;5077716;28;20050;-77
2023/07/10 00:37:05;;;;;;;53.50;23.27;;;18.20;99.90;;;;;;5079013;28;20228;-70
2023/07/10 00:39:35;;;;;;;38.38;20.40;;;18.20;99.90;;;;;;5077946;28;20454;-78
2023/07/10 00:42:10;;;;;;;52.05;21.73;;;18.10;99.90;;;;;;5057590;28;20052;-77
2023/07/10 00:44:41;;;;;;;28.17;19.58;;;18.10;99.90;;;;;;5077591;28;20048;-70
2023/07/10 00:47:38;;;;;;;31.55;19.15;;;18.10;99.90;;;;;;5049327;28;20429;-70
2023/07/10 00:50:30;;;;;;;37.65;20.20;;;18.10;99.90;;;;;;5060899;28;20648;-74
2023/07/10 00:52:59;;;;;;;29.33;18.17;;;18.10;99.90;;;;;;5078020;28;20051;-71
2023/07/10 00:55:34;;;;;;;68.30;24.17;;;18.10;99.90;;;;;;5044987;28;20131;-74
2023/07/10 00:58:24;;;;;;;33.35;19.85;;;18.10;99.90;;;;;;5061129;28;20058;-71
2023/07/10 01:01:08;;;;;;;30.00;19.15;;;18.10;99.90;;;;;;5089462;28;20075;-71
2023/07/10 01:03:35;;;;;;;36.58;20.27;;;18.20;99.90;;;;;;5074265;28;20050;-72
2023/07/10 01:06:16;;;;;;;25.50;18.60;;;18.10;99.90;;;;;;5077474;28;20607;-69
2023/07/10 01:08:57;;;;;;;27.30;18.10;;;18.20;99.90;;;;;;5059062;28;20059;-73
2023/07/10 01:11:23;;;;;;;39.15;20.55;;;18.10;99.90;;;;;;5061975;28;20063;-71
2023/07/10 01:13:53;;;;;;;35.05;19.35;;;20.30;99.90;;;;;;5077538;28;20370;-67
2023/07/10 01:16:20;;;;;;;23.75;16.98;;;18.20;99.90;;;;;;5076485;28;20125;-74
2023/07/10 01:18:48;;;;;;;31.30;17.35;;;17.40;99.90;;;;;;5060225;28;20032;-69
2023/07/10 01:21:24;;;;;;;29.52;17.77;;;18.20;99.90;;;;;;5076523;28;20048;-66
2023/07/10 01:23:50;;;;;;;27.02;16.48;;;18.20;99.90;;;;;;5076089;28;20048;-70
2023/07/10 01:26:16;;;;;;;27.10;18.08;;;18.10;99.90;;;;;;5072099;28;20040;-69
2023/07/10 01:28:43;;;;;;;20.42;16.52;;;18.20;99.90;;;;;;5052583;28;20032;-71
2023/07/10 01:31:12;;;;;;;27.83;16.48;;;18.20;99.90;;;;;;5076272;28;20079;-79
2023/07/10 01:33:46;;;;;;;60.53;21.83;;;18.30;99.90;;;;;;5045294;28;20055;-74
2023/07/10 01:36:17;;;;;;;25.58;17.90;;;18.30;99.90;;;;;;5064740;28;20377;-71
2023/07/10 01:38:49;;;;;;;24.70;16.00;;;18.30;99.90;;;;;;5052452;28;20047;-69
2023/07/10 01:41:29;;;;;;;25.23;16.48;;;18.30;99.90;;;;;;5060548;28;20091;-74
2023/07/10 01:43:55;;;;;;;36.55;19.63;;;18.30;99.90;;;;;;5076884;28;20380;-69
2023/07/10 01:46:24;;;;;;;27.42;18.08;;;18.30;99.90;;;;;;5075917;28;20276;-78
2023/07/10 01:48:53;;;;;;;31.13;18.13;;;18.30;99.90;;;;;;5052064;28;20036;-77
2023/07/10 01:51:23;;;;;;;36.92;20.25;;;18.30;99.90;;;;;;5076645;28;20043;-76
2023/07/10 01:53:50;;;;;;;31.92;20.30;;;18.30;99.90;;;;;;5052468;28;20379;-76
2023/07/10 01:56:18;;;;;;;59.05;23.92;;;18.30;99.90;;;;;;5059057;28;20213;-79
2023/07/10 01:58:44;;;;;;;46.38;23.02;;;18.30;99.90;;;;;;5058239;28;20051;-69
2023/07/10 02:01:10;;;;;;;57.80;25.30;;;18.30;99.90;;;;;;5071743;28;20039;-80
2023/07/10 02:03:36;;;;;;;39.28;23.65;;;18.30;99.90;;;;;;5075778;28;20040;-74
2023/07/10 02:06:02;;;;;;;41.85;25.88;;;18.30;99.90;;;;;;5074863;28;20060;-69
2023/07/10 02:08:28;;;;;;;40.92;24.40;;;18.30;99.90;;;;;;5074962;28;20063;-74
2023/07/10 02:10:54;;;;;;;42.45;25.75;;;18.30;99.90;;;;;;5072255;28;20044;-68
2023/07/10 02:13:20;;;;;;;36.70;24.23;;;18.40;99.90;;;;;;5074926;28;20278;-82
2023/07/10 02:15:45;;;;;;;36.60;24.75;;;18.40;99.90;;;;;;5075600;28;20740;-72
2023/07/10 02:18:11;;;;;;;43.40;27.05;;;18.40;99.90;;;;;;5075630;28;20398;-69
2023/07/10 02:20:39;;;;;;;36.85;26.13;;;18.40;99.90;;;;;;5077173;28;20048;-66
2023/07/10 02:23:04;;;;;;;69.90;29.75;;;18.40;99.90;;;;;;5075583;28;20056;-71
2023/07/10 02:25:30;;;;;;;60.05;29.75;;;18.40;99.90;;;;;;5075307;28;20331;-71
2023/07/10 02:27:56;;;;;;;58.80;29.52;;;18.40;99.90;;;;;;5075402;28;20562;-71
2023/07/10 02:30:22;;;;;;;72.93;29.45;;;18.30;99.90;;;;;;5054202;28;20552;-73
2023/07/10 02:32:49;;;;;;;59.67;28.75;;;18.30;99.90;;;;;;5075265;28;20048;-67
2023/07/10 02:35:15;;;;;;;61.03;28.83;;;18.20;99.90;;;;;;5058159;28;20491;-78
2023/07/10 02:37:40;;;;;;;58.95;31.38;;;18.20;99.90;;;;;;5076509;28;20342;-67
2023/07/10 02:40:07;;;;;;;85.72;33.28;;;18.20;99.90;;;;;;5074441;28;20125;-76
2023/07/10 02:42:32;;;;;;;64.28;31.25;;;18.10;99.90;;;;;;5058823;28;20044;-72
2023/07/10 02:44:58;;;;;;;46.60;29.70;;;18.10;99.90;;;;;;5075364;28;20063;-68
2023/07/10 02:47:24;;;;;;;61.85;28.67;;;18.10;99.90;;;;;;5076005;28;20173;-72
2023/07/10 02:49:50;;;;;;;55.70;30.77;;;18.00;99.90;;;;;;5075184;28;20062;-74
2023/07/10 02:52:15;;;;;;;73.95;31.85;;;18.00;99.90;;;;;;5074711;28;20181;-72
2023/07/10 02:54:41;;;;;;;50.13;29.77;;;18.00;99.90;;;;;;5074928;28;20685;-73
2023/07/10 02:57:07;;;;;;;79.55;34.97;;;17.90;99.90;;;;;;5057655;28;20043;-75
2023/07/10 02:59:33;;;;;;;104.32;35.13;;;17.90;99.90;;;;;;5074051;28;20507;-70
2023/07/10 03:02:00;;;;;;;57.03;30.05;;;17.80;99.90;;;;;;5074583;28;20048;-75
2023/07/10 03:04:25;;;;;;;63.00;31.60;;;17.80;99.90;;;;;;5068597;28;20397;-70
2023/07/10 03:06:51;;;;;;;46.72;29.08;;;17.80;99.90;;;;;;5074371;28;20043;-70
2023/07/10 03:09:17;;;;;;;55.30;31.08;;;17.80;99.90;;;;;;5074893;28;20052;-76
2023/07/10 03:11:43;;;;;;;48.33;31.23;;;17.90;99.90;;;;;;5074329;28;20085;-75
2023/07/10 03:14:09;;;;;;;56.90;31.85;;;17.90;99.90;;;;;;5045198;28;20040;-71
2023/07/10 03:16:35;;;;;;;75.63;33.72;;;17.90;99.90;;;;;;5072127;28;20052;-68
2023/07/10 03:19:00;;;;;;;43.65;30.23;;;17.80;99.90;;;;;;5070951;28;20466;-71
2023/07/10 03:21:26;;;;;;;85.13;34.40;;;17.80;99.90;;;;;;5086938;28;20800;-71
2023/07/10 03:23:52;;;;;;;44.05;30.35;;;17.90;99.90;;;;;;5074395;28;20048;-70
2023/07/10 03:26:18;;;;;;;128.02;37.70;;;17.80;99.90;;;;;;5057207;28;20040;-75
2023/07/10 03:28:43;;;;;;;75.22;33.15;;;17.80;99.90;;;;;;5057995;28;20109;-70
2023/07/10 03:31:09;;;;;;;45.30;30.50;;;17.80;99.90;;;;;;5074474;28;20131;-74
2023/07/10 03:33:35;;;;;;;45.70;30.13;;;17.80;99.90;;;;;;5072720;28;20048;-69
2023/07/10 03:36:05;;;;;;;47.92;30.85;;;17.80;99.90;;;;;;5059147;28;20051;-73
2023/07/10 03:38:32;;;;;;;56.63;32.17;;;17.80;99.90;;;;;;5056674;28;20048;-70
2023/07/10 03:40:57;;;;;;;44.30;29.80;;;17.80;99.90;;;;;;5057842;28;20431;-69
2023/07/10 03:43:25;;;;;;;78.13;33.10;;;17.80;99.90;;;;;;5076146;28;20056;-70
2023/07/10 03:45:51;;;;;;;43.10;29.83;;;17.80;99.90;;;;;;5075500;28;20455;-69
2023/07/10 03:48:16;;;;;;;53.60;29.77;;;17.70;99.90;;;;;;5075356;28;20094;-70
2023/07/10 03:50:42;;;;;;;44.67;29.23;;;17.70;99.90;;;;;;5077377;28;20060;-69
2023/07/10 03:53:08;;;;;;;39.22;28.98;;;17.90;99.90;;;;;;5094931;28;20632;-69
2023/07/10 03:55:34;;;;;;;82.75;34.30;;;17.80;99.90;;;;;;5077469;28;20560;-66
2023/07/10 03:58:00;;;;;;;55.00;28.58;;;17.80;99.90;;;;;;5078292;28;20312;-74
2023/07/10 04:00:25;;;;;;;58.20;30.48;;;17.70;99.90;;;;;;5079086;28;20044;-70
2023/07/10 04:02:51;;;;;;;45.30;29.20;;;17.70;99.90;;;;;;5062187;28;20055;-74
2023/07/10 04:05:17;;;;;;;103.97;34.33;;;17.70;99.90;;;;;;5063872;28;20372;-70
2023/07/10 04:07:43;;;;;;;82.70;31.75;;;17.70;99.90;;;;;;5079709;28;20387;-68
2023/07/10 04:10:09;;;;;;;59.60;30.00;;;17.80;99.90;;;;;;5080313;28;20040;-70
2023/07/10 04:12:35;;;;;;;53.80;30.90;;;17.80;99.90;;;;;;5063706;28;20261;-73
2023/07/10 04:15:00;;;;;;;45.55;27.77;;;17.80;99.90;;;;;;5079649;28;20040;-72
2023/07/10 04:17:26;;;;;;;48.58;28.13;;;17.80;99.90;;;;;;5081164;28;20036;-70
2023/07/10 04:19:52;;;;;;;40.55;27.67;;;17.90;99.90;;;;;;5078972;28;20384;-70
2023/07/10 04:22:18;;;;;;;37.13;26.90;;;17.90;99.90;;;;;;5085128;28;20075;-74
2023/07/10 04:24:44;;;;;;;40.28;28.65;;;18.00;99.90;;;;;;5089446;28;20547;-66
2023/07/10 04:27:10;;;;;;;39.65;27.98;;;18.00;99.90;;;;;;5080168;28;20047;-67
2023/07/10 04:29:36;;;;;;;43.65;28.45;;;18.00;99.90;;;;;;5077517;28;20043;-65
2023/07/10 04:32:01;;;;;;;38.35;27.70;;;18.10;99.90;;;;;;5076706;28;20117;-68
2023/07/10 04:34:27;;;;;;;36.25;27.08;;;18.10;99.90;;;;;;5077263;28;20051;-73
2023/07/10 04:36:53;;;;;;;40.33;26.38;;;18.10;99.90;;;;;;5059417;28;20048;-71
2023/07/10 04:39:19;;;;;;;48.10;29.40;;;18.10;99.90;;;;;;5076383;28;20058;-75
2023/07/10 04:41:46;;;;;;;44.25;29.17;;;18.10;99.90;;;;;;5076137;28;20127;-69
2023/07/10 04:44:12;;;;;;;39.97;27.50;;;18.20;99.90;;;;;;5076313;28;20065;-71
2023/07/10 04:46:38;;;;;;;34.20;25.02;;;18.20;99.90;;;;;;5076919;28;20347;-73
2023/07/10 04:49:04;;;;;;;33.97;25.70;;;18.20;99.90;;;;;;5076429;28;20469;-72
2023/07/10 04:51:29;;;;;;;37.28;25.27;;;18.30;99.90;;;;;;5060080;28;20446;-70
2023/07/10 04:53:55;;;;;;;41.40;26.92;;;18.40;99.90;;;;;;5093812;28;20116;-74
2023/07/10 04:56:21;;;;;;;40.30;25.98;;;18.40;99.90;;;;;;5059931;28;20137;-67
2023/07/10 04:58:55;;;;;;;28.40;23.02;;;18.40;99.90;;;;;;5076214;28;20374;-68
2023/07/10 05:01:24;;;;;;;34.03;23.10;;;18.50;99.90;;;;;;5041954;28;20052;-67
2023/07/10 05:03:50;;;;;;;23.65;18.88;;;18.50;99.90;;;;;;5076128;28;20048;-69
2023/07/10 05:06:17;;;;;;;23.00;17.00;;;18.50;99.90;;;;;;5075567;28;20513;-68
2023/07/10 05:08:43;;;;;;;20.88;15.02;;;18.60;99.90;;;;;;5059096;28;20048;-71
2023/07/10 05:11:09;;;;;;;27.00;15.18;;;18.60;99.90;;;;;;5048115;28;20062;-72
2023/07/10 05:13:35;;;;;;;26.27;13.73;;;18.60;99.90;;;;;;5079456;28;20040;-69
2023/07/10 05:16:00;;;;;;;14.73;12.52;;;18.60;99.90;;;;;;5059360;28;20134;-70
2023/07/10 05:18:27;;;;;;;15.07;11.50;;;18.60;99.90;;;;;;5059086;28;20043;-73
2023/07/10 05:20:53;;;;;;;21.33;13.35;;;18.70;99.90;;;;;;5071349;28;20489;-67
2023/07/10 05:23:20;;;;;;;27.60;15.07;;;18.70;99.90;;;;;;5058900;28;20051;-71
2023/07/10 05:26:02;;;;;;;17.65;12.98;;;19.80;99.90;;;;;;5057803;28;20047;-72
2023/07/10 05:28:27;;;;;;;;;;;18.60;99.90;;;;;;5057045;28;20077;-71
2023/07/10 05:30:57;;;;;;;16.70;12.13;;;18.50;99.90;;;;;;5074915;28;19923;-71
2023/07/10 05:33:23;;;;;;;14.73;12.13;;;18.50;99.90;;;;;;5075507;28;20420;-71
2023/07/10 05:35:54;;;;;;;14.38;11.77;;;18.60;99.90;;;;;;5077413;28;20059;-72
2023/07/10 05:38:22;;;;;;;15.27;11.52;;;18.60;99.90;;;;;;5052844;28;20493;-72
2023/07/10 05:40:48;;;;;;;12.02;10.18;;;18.70;99.90;;;;;;5049913;28;20045;-73
2023/07/10 05:43:14;;;;;;;13.70;8.93;;;18.70;99.90;;;;;;5074997;28;20052;-74
2023/07/10 05:45:40;;;;;;;10.35;7.30;;;18.80;99.90;;;;;;5092351;28;20079;-75
2023/07/10 05:48:06;;;;;;;8.88;6.10;;;18.80;99.90;;;;;;5057785;28;20040;-70
2023/07/10 05:50:32;;;;;;;9.77;6.30;;;18.80;99.90;;;;;;5075306;28;20052;-68
2023/07/10 05:52:58;;;;;;;8.80;5.63;;;18.90;99.90;;;;;;5075523;28;20513;-75
2023/07/10 05:55:23;;;;;;;9.50;6.07;;;19.00;99.90;;;;;;5075125;28;20077;-69
2023/07/10 05:57:49;;;;;;;9.20;5.35;;;19.10;99.90;;;;;;5090807;28;20092;-77
2023/07/10 06:00:15;;;;;;;9.63;6.28;;;19.20;99.90;;;;;;5058847;28;20590;-73
2023/07/10 06:02:41;;;;;;;7.35;5.57;;;19.30;99.90;;;;;;5048217;28;20054;-71
2023/07/10 06:05:08;;;;;;;9.32;5.13;;;19.30;99.90;;;;;;5059220;28;20131;-68
2023/07/10 06:07:33;;;;;;;9.43;4.60;;;19.30;99.90;;;;;;5048686;28;20085;-70
2023/07/10 06:09:59;;;;;;;9.23;5.10;;;19.30;99.90;;;;;;5076067;28;20055;-74
2023/07/10 06:12:25;;;;;;;8.32;5.35;;;19.30;99.90;;;;;;5060301;28;20032;-70
2023/07/10 06:14:51;;;;;;;10.13;5.38;;;19.40;99.90;;;;;;5077858;28;20044;-73
2023/07/10 06:17:16;;;;;;;9.45;5.88;;;19.50;99.90;;;;;;5086623;28;20076;-68
2023/07/10 06:19:42;;;;;;;11.85;6.75;;;19.60;99.90;;;;;;5092057;28;20039;-77
2023/07/10 06:22:10;;;;;;;8.18;5.25;;;20.00;99.90;;;;;;5085556;28;20217;-71
2023/07/10 06:24:36;;;;;;;7.38;5.95;;;19.80;99.90;;;;;;5074464;28;20052;-71
2023/07/10 06:27:02;;;;;;;14.90;7.22;;;19.80;99.90;;;;;;5057345;28;20051;-68
2023/07/10 06:29:29;;;;;;;13.77;7.82;;;19.90;99.90;;;;;;5076129;28;20111;-77
2023/07/10 06:31:55;;;;;;;10.85;7.40;;;20.00;99.90;;;;;;5057104;28;20475;-71
2023/07/10 06:34:21;;;;;;;8.52;6.78;;;20.00;99.90;;;;;;5067226;28;20811;-74
2023/07/10 06:36:47;;;;;;;9.68;7.43;;;20.00;99.90;;;;;;5071637;28;20054;-68
2023/07/10 06:39:12;;;;;;;14.90;7.93;;;20.10;99.90;;;;;;5087661;28;20290;-72
2023/07/10 06:41:38;;;;;;;9.73;7.15;;;20.20;99.90;;;;;;5087984;28;20135;-71
2023/07/10 06:44:04;;;;;;;10.70;7.88;;;20.30;99.90;;;;;;5074038;28;20080;-74
2023/07/10 06:46:29;;;;;;;11.85;8.10;;;20.40;99.90;;;;;;5092652;28;20043;-67
2023/07/10 06:48:55;;;;;;;11.52;7.95;;;20.60;99.90;;;;;;5091663;28;20363;-76
2023/07/10 06:51:21;;;;;;;10.48;8.20;;;20.90;99.90;;;;;;5073999;28;20814;-69
2023/07/10 06:53:47;;;;;;;11.00;7.40;;;21.30;99.90;;;;;;5072041;28;21378;-68
2023/07/10 06:56:12;;;;;;;8.52;6.13;;;22.00;99.90;;;;;;5066376;28;20051;-70
2023/07/10 06:58:38;;;;;;;9.88;6.57;;;22.60;99.90;;;;;;5073405;28;20443;-76
2023/07/10 07:01:04;;;;;;;10.98;6.00;;;23.70;99.90;;;;;;5090722;28;20201;-76
2023/07/10 07:03:30;;;;;;;10.50;5.38;;;23.90;99.90;;;;;;5064460;28;20758;-73
2023/07/10 07:05:56;;;;;;;8.88;5.13;;;23.80;99.90;;;;;;5072757;28;20083;-70
2023/07/10 07:08:24;;;;;;;5.93;4.25;;;23.80;99.90;;;;;;5056279;28;20527;-74
2023/07/10 07:10:52;;;;;;;7.43;4.63;;;24.40;99.90;;;;;;5074708;28;20556;-72
2023/07/10 07:13:18;;;;;;;7.75;4.00;;;24.70;99.90;;;;;;5073694;28;20047;-68
2023/07/10 07:15:51;;;;;;;6.72;3.42;;;25.50;99.90;;;;;;5074108;28;20052;-76
2023/07/10 07:18:17;;;;;;;6.90;3.15;;;26.10;99.90;;;;;;5052928;28;20048;-77
2023/07/10 07:20:43;;;;;;;6.15;2.78;;;26.30;99.90;;;;;;5072237;28;20404;-70
2023/07/10 07:23:08;;;;;;;7.15;2.85;;;26.60;99.90;;;;;;5054401;28;20055;-74
2023/07/10 07:25:34;;;;;;;4.78;2.40;;;26.60;99.90;;;;;;5075301;28;20060;-74
2023/07/10 07:28:03;;;;;;;4.43;2.28;;;27.10;99.90;;;;;;5075906;28;20082;-79
2023/07/10 07:30:29;;;;;;;6.50;2.70;;;28.70;99.90;;;;;;5077777;28;20343;-65
2023/07/10 07:32:56;;;;;;;6.15;1.58;;;30.20;99.20;;;;;;5076280;28;20051;-78
2023/07/10 07:35:23;;;;;;;6.60;1.58;;;31.60;96.90;;;;;;5066822;28;20111;-71
2023/07/10 07:37:49;;;;;;;6.63;1.60;;;32.80;93.40;;;;;;5048126;28;20048;-76
2023/07/10 07:40:16;;;;;;;5.15;1.80;;;33.40;90.80;;;;;;5076357;28;20101;-79
2023/07/10 07:42:46;;;;;;;4.45;1.15;;;34.20;87.10;;;;;;5077653;28;20057;-71
2023/07/10 07:45:14;;;;;;;8.60;1.27;;;34.80;81.40;;;;;;5077954;28;20131;-72
2023/07/10 07:47:40;;;;;;;5.13;1.38;;;35.30;77.80;;;;;;5077127;28;20062;-76
2023/07/10 07:50:08;;;;;;;3.78;1.35;;;35.90;73.10;;;;;;5076577;28;20552;-69
2023/07/10 07:52:34;;;;;;;5.10;1.10;;;38.00;73.20;;;;;;5076831;28;20150;-77
2023/07/10 07:55:00;;;;;;;5.78;1.40;;;37.20;70.10;;;;;;5073208;28;20048;-74
2023/07/10 07:57:26;;;;;;;3.13;1.10;;;37.50;68.00;;;;;;5075947;28;20153;-73
2023/07/10 07:59:52;;;;;;;6.70;1.42;;;38.00;65.80;;;;;;5076951;28;20620;-75
2023/07/10 08:02:18;;;;;;;6.13;1.27;;;38.10;62.80;;;;;;5082740;28;20054;-71
2023/07/10 08:04:44;;;;;;;3.90;1.40;;;38.50;62.40;;;;;;5064903;28;20052;-76
2023/07/10 08:07:10;;;;;;;6.20;1.15;;;38.60;61.90;;;;;;5078064;28;20046;-66
2023/07/10 08:09:36;;;;;;;5.13;1.23;;;38.50;62.00;;;;;;5076978;28;20055;-77
2023/07/10 08:12:02;;;;;;;4.30;1.00;;;38.70;60.90;;;;;;5060482;28;20043;-73
2023/07/10 08:14:29;;;;;;;3.60;0.88;;;38.70;58.80;;;;;;5061086;28;20548;-72
2023/07/10 08:16:55;;;;;;;6.90;1.17;;;39.10;59.50;;;;;;5083509;28;20397;-67
2023/07/10 08:19:20;;;;;;;4.45;1.45;;;39.20;57.80;;;;;;5092190;28;20052;-67
2023/07/10 08:21:47;;;;;;;3.95;0.90;;;39.20;57.50;;;;;;5077356;28;20047;-71
2023/07/10 08:24:13;;;;;;;5.38;0.98;;;38.80;57.90;;;;;;5076762;28;20052;-68
2023/07/10 08:26:39;;;;;;;7.13;0.90;;;38.50;57.50;;;;;;5090585;28;20049;-69
2023/07/10 08:29:31;;;;;;;3.15;0.80;;;38.10;57.30;;;;;;5081693;28;20044;-70
2023/07/10 08:31:59;;;;;;;6.20;0.90;;;38.40;56.60;;;;;;5062734;28;20063;-76
2023/07/10 08:34:26;;;;;;;5.05;0.90;;;38.40;57.30;;;;;;5052187;28;20088;-70
2023/07/10 08:36:53;;;;;;;4.70;1.02;;;38.70;57.50;;;;;;5060378;28;20054;-72
2023/07/10 08:39:20;;;;;;;6.85;1.00;;;37.80;56.60;;;;;;5060577;28;20478;-69
2023/07/10 08:42:07;;;;;;;4.88;0.85;;;37.50;57.30;;;;;;5064132;28;20447;-69
2023/07/10 08:44:38;;;;;;;6.63;0.70;;;37.70;57.50;;;;;;5081439;28;20618;-72
2023/07/10 08:47:16;;;;;;;3.38;0.55;;;37.70;56.20;;;;;;5059267;28;20417;-75
2023/07/10 08:50:04;;;;;;;6.43;0.80;;;36.20;55.80;;;;;;5052041;28;20417;-71
2023/07/10 08:52:35;;;;;;;4.30;0.68;;;34.60;57.50;;;;;;5073292;28;20140;-71
2023/07/10 08:55:01;;;;;;;4.47;0.52;;;34.30;59.40;;;;;;5053057;28;20048;-70
2023/07/10 08:57:34;;;;;;;7.78;1.27;;;33.90;60.50;;;;;;5079202;28;20048;-70
2023/07/10 09:00:13;;;;;;;4.20;0.98;;;34.20;60.50;;;;;;5071387;28;20048;-69
2023/07/10 09:02:48;;;;;;;3.13;0.80;;;33.60;60.10;;;;;;5070142;28;20075;-69
2023/07/10 09:05:26;;;;;;;5.55;1.15;;;33.00;60.10;;;;;;5075749;28;20131;-68
2023/07/10 09:07:54;;;;;;;5.07;0.70;;;32.80;61.10;;;;;;5057332;28;20493;-76
2023/07/10 09:10:31;;;;;;;3.60;0.65;;;33.00;61.70;;;;;;5052073;28;20580;-70
2023/07/10 09:13:01;;;;;;;5.03;0.77;;;33.50;61.50;;;;;;5073978;28;20414;-70
2023/07/10 09:15:34;;;;;;;3.78;0.75;;;34.40;61.80;;;;;;5046377;28;20052;-65
2023/07/10 09:18:23;;;;;;;5.57;0.82;;;34.80;61.20;;;;;;5075018;28;20071;-75
2023/07/10 09:20:56;;;;;;;8.40;1.08;;;35.00;60.10;;;;;;5052456;28;20130;-70
2023/07/10 09:23:25;;;;;;;6.10;0.95;;;33.10;57.50;;;;;;5058248;28;20040;-69
2023/07/10 09:26:08;;;;;;;7.00;0.80;;;34.00;59.90;;;;;;5058656;28;20051;-76
2023/07/10 09:28:35;;;;;;;5.05;0.75;;;34.30;60.70;;;;;;5075579;28;20036;-77
2023/07/10 09:31:07;;;;;;;5.68;0.70;;;34.40;60.40;;;;;;5056774;28;20040;-72
2023/07/10 09:33:37;;;;;;;5.30;0.75;;;34.60;60.00;;;;;;5057318;28;20548;-71
2023/07/10 09:36:12;;;;;;;5.77;0.60;;;35.00;59.50;;;;;;5057094;28;20138;-71
2023/07/10 09:38:43;;;;;;;5.13;1.00;;;35.40;59.40;;;;;;5056508;28;20343;-72
2023/07/10 09:41:18;;;;;;;5.65;1.35;;;35.20;59.00;;;;;;5072126;28;20060;-77
2023/07/10 09:44:17;;;;;;;7.28;0.60;;;35.20;58.60;;;;;;5047382;28;20036;-71
2023/07/10 09:46:44;;;;;;;4.00;0.70;;;34.80;57.90;;;;;;5092109;28;20039;-75
2023/07/10 09:49:17;;;;;;;6.38;0.85;;;33.60;59.60;;;;;;5057259;28;20617;-70
2023/07/10 09:51:57;;;;;;;5.80;0.80;;;33.40;59.90;;;;;;5075375;28;20036;-70
2023/07/10 09:54:23;;;;;;;6.43;1.10;;;33.60;60.60;;;;;;5073323;28;20067;-68
2023/07/10 09:56:51;;;;;;;5.75;0.90;;;33.90;60.00;;;;;;5059046;28;20606;-76
2023/07/10 09:59:24;;;;;;;5.07;0.65;;;33.60;59.90;;;;;;5075876;28;20535;-70
2023/07/10 10:01:52;;;;;;;8.05;0.82;;;33.70;60.10;;;;;;5056189;28;20070;-68
2023/07/10 10:04:24;;;;;;;6.47;1.10;;;33.60;60.40;;;;;;5048222;28;20044;-73
2023/07/10 10:07:01;;;;;;;4.47;0.90;;;33.50;59.70;;;;;;5075527;28;20044;-76
2023/07/10 10:09:29;;;;;;;7.30;1.13;;;33.00;59.10;;;;;;5059301;28;20101;-69
2023/07/10 10:12:03;;;;;;;4.78;0.85;;;32.70;60.50;;;;;;5074590;28;20043;-68
2023/07/10 10:14:49;;;;;;;4.13;0.70;;;32.80;60.80;;;;;;5055975;28;20056;-71
2023/07/10 10:17:17;;;;;;;5.68;0.93;;;32.80;61.20;;;;;;5058358;28;20585;-70
2023/07/10 10:19:50;;;;;;;9.90;0.80;;;32.70;61.80;;;;;;5057523;28;20497;-72
2023/07/10 10:22:16;;;;;;;7.30;1.00;;;32.80;62.00;;;;;;5059559;28;20379;-70
2023/07/10 10:24:42;;;;;;;10.00;1.05;;;32.70;63.20;;;;;;5054001;28;20047;-68
2023/07/10 10:27:43;;;;;;;5.13;1.30;;;32.80;64.00;;;;;;5076790;28;20606;-70
2023/07/10 10:30:19;;;;;;;4.28;0.80;;;32.60;62.50;;;;;;5057394;28;20044;-72
2023/07/10 10:32:48;;;;;;;6.30;1.23;;;32.30;63.00;;;;;;5071547;28;20048;-73
2023/07/10 10:35:23;;;;;;;5.82;1.13;;;32.20;62.60;;;;;;5093012;28;20069;-76
2023/07/10 10:37:56;;;;;;;4.50;0.95;;;32.30;62.40;;;;;;5077961;28;20137;-78
2023/07/10 10:40:47;;;;;;;5.85;0.98;;;32.30;62.60;;;;;;5077536;28;20075;-73
2023/07/10 10:43:16;;;;;;;5.47;2.35;;;32.20;62.10;;;;;;5061832;28;20480;-71
2023/07/10 10:45:47;;;;;;;4.40;0.60;;;31.90;62.40;;;;;;5052175;28;20051;-73
2023/07/10 10:48:25;;;;;;;4.88;1.00;;;31.60;62.60;;;;;;5059848;28;20044;-76
2023/07/10 10:51:11;;;;;;;9.43;1.25;;;31.40;61.80;;;;;;5061728;28;20051;-76
2023/07/10 10:53:44;;;;;;;7.03;0.95;;;31.20;61.80;;;;;;5084550;28;20040;-71
2023/07/10 10:56:22;;;;;;;8.00;1.15;;;30.70;62.90;;;;;;5061630;28;20135;-74
2023/07/10 10:58:58;;;;;;;7.70;1.02;;;29.90;63.90;;;;;;5050727;28;20062;-69
2023/07/10 11:01:41;;;;;;;5.78;1.02;;;29.20;65.90;;;;;;5057736;28;20139;-64
2023/07/10 11:04:35;;;;;;;6.45;0.80;;;28.60;68.60;;;;;;5061297;28;20455;-80
2023/07/10 11:07:16;;;;;;;7.45;0.77;;;28.10;69.10;;;;;;5056002;28;20044;-75
2023/07/10 11:10:01;;;;;;;6.15;1.17;;;27.80;68.80;;;;;;5133183;27;20864;-73
2023/07/10 11:12:33;;;;;;;6.35;0.82;;;27.40;69.90;;;;;;5114894;28;20071;-72
2023/07/10 11:15:17;;;;;;;6.90;1.30;;;27.10;69.90;;;;;;5098113;28;20043;-74
2023/07/10 11:17:46;;;;;;;3.88;0.75;;;26.80;70.40;;;;;;5098377;28;20291;-72
2023/07/10 11:20:15;;;;;;;7.85;0.77;;;26.60;71.50;;;;;;5098024;28;20055;-75
2023/07/10 11:22:55;;;;;;;7.72;0.77;;;26.40;72.10;;;;;;5099055;28;20054;-73
2023/07/10 11:25:57;;;;;;;3.77;0.73;;;26.20;71.90;;;;;;5094753;28;20022;-71
2023/07/10 11:28:29;;;;;;;9.52;0.93;;;26.10;72.60;;;;;;5127343;27;20366;-71
2023/07/10 11:31:30;;;;;;;5.95;1.15;;;26.00;72.90;;;;;;5098553;28;20062;-69
2023/07/10 11:34:05;;;;;;;7.67;0.90;;;26.00;73.90;;;;;;5077095;28;20126;-72
2023/07/10 11:36:33;;;;;;;5.70;0.65;;;25.80;73.90;;;;;;5098522;28;20289;-73
2023/07/10 11:39:05;;;;;;;4.38;0.68;;;25.70;73.60;;;;;;5097541;28;20104;-72
2023/07/10 11:41:35;;;;;;;4.85;0.77;;;25.60;73.90;;;;;;5125341;27;20122;-79
2023/07/10 11:44:33;;;;;;;4.10;0.50;;;25.60;74.80;;;;;;5114583;28;20051;-76
2023/07/10 11:47:05;;;;;;;3.95;0.70;;;25.50;75.50;;;;;;5113510;28;20046;-71
2023/07/10 11:49:45;;;;;;;5.00;0.47;;;25.50;75.30;;;;;;5098144;28;20924;-74
2023/07/10 11:52:13;;;;;;;5.15;0.47;;;25.60;76.40;;;;;;5113909;28;20100;-74
2023/07/10 11:54:58;;;;;;;4.00;0.77;;;25.70;76.00;;;;;;5097819;28;20484;-78
2023/07/10 11:57:33;;;;;;;6.07;1.02;;;25.80;76.00;;;;;;5096773;28;20047;-79
2023/07/10 12:00:21;;;;;;;4.55;0.65;;;25.80;76.70;;;;;;5110087;28;20725;-77
2023/07/10 12:02:49;;;;;;;6.38;0.65;;;26.00;76.90;;;;;;5113889;28;20051;-79
2023/07/10 12:05:33;;;;;;;5.28;0.60;;;26.00;76.10;;;;;;5096846;28;20043;-73
2023/07/10 12:08:08;;;;;;;6.88;1.38;;;26.10;76.60;;;;;;5079539;28;20563;-74
2023/07/10 12:10:45;;;;;;;6.25;1.23;;;26.20;77.10;;;;;;5096836;28;20052;-80
2023/07/10 12:13:31;;;;;;;5.75;0.52;;;26.30;76.50;;;;;;5087552;28;20050;-72
2023/07/10 12:16:08;;;;;;;6.05;1.27;;;26.40;76.60;;;;;;5080493;28;20051;-74
2023/07/10 12:18:38;;;;;;;4.78;0.60;;;26.50;75.80;;;;;;5101384;28;20044;-72
2023/07/10 12:21:18;;;;;;;4.07;0.65;;;26.50;75.20;;;;;;5083616;28;20055;-71
2023/07/10 12:24:04;;;;;;;7.53;0.90;;;26.40;74.00;;;;;;5117393;27;20501;-74
2023/07/10 12:26:32;;;;;;;5.35;0.98;;;26.40;74.00;;;;;;5078042;28;20121;-80
2023/07/10 12:28:58;;;;;;;8.30;0.88;;;26.40;75.40;;;;;;5078967;28;20048;-79
2023/07/10 12:31:25;;;;;;;6.90;1.27;;;26.30;74.80;;;;;;5075669;28;20089;-75
2023/07/10 12:33:52;;;;;;;4.40;0.80;;;26.20;75.00;;;;;;5082211;28;20042;-77
2023/07/10 12:36:18;;;;;;;5.90;0.80;;;26.20;74.80;;;;;;5081769;28;20163;-70
2023/07/10 12:38:45;;;;;;;8.70;1.10;;;26.20;74.50;;;;;;5054056;28;20404;-73
2023/07/10 12:41:11;;;;;;;5.57;0.80;;;26.20;74.00;;;;;;5082271;28;20431;-72
2023/07/10 12:43:37;;;;;;;5.93;0.70;;;26.20;74.00;;;;;;5099873;28;20120;-77
2023/07/10 12:46:15;;;;;;;5.28;0.65;;;26.10;74.10;;;;;;5078437;28;20054;-74
2023/07/10 12:48:42;;;;;;;3.47;0.70;;;26.00;73.60;;;;;;5102589;28;20074;-74
2023/07/10 12:51:15;;;;;;;5.20;0.80;;;26.00;74.70;;;;;;5086163;28;20424;-71